createdAt,value
2023-01-12T00:02:15.462Z,30.58
2023-01-12T00:04:45.315Z,22.05
2023-01-12T00:07:15.995Z,30.98
2023-01-12T00:09:43.997Z,27.75
2023-01-12T00:12:13.207Z,26.08
2023-01-12T00:14:41.437Z,28.60
2023-01-12T00:17:11.871Z,31.23
2023-01-12T00:19:40.236Z,31.48
2023-01-12T00:22:11.555Z,24.80
2023-01-12T00:24:41.667Z,27.88
2023-01-12T00:27:11.430Z,32.95
2023-01-12T00:29:40.298Z,33.17
2023-01-12T00:32:12.488Z,40.67
2023-01-12T00:34:40.415Z,26.80
2023-01-12T00:37:10.148Z,33.38
2023-01-12T00:39:43.072Z,21.40
2023-01-12T00:42:36.923Z,30.75
2023-01-12T00:45:24.786Z,26.90
2023-01-12T00:47:53.449Z,35.25
2023-01-12T00:50:21.412Z,40.75
2023-01-12T00:52:50.653Z,36.03
2023-01-12T00:55:18.793Z,36.65
2023-01-12T00:57:46.688Z,29.35
2023-01-12T01:00:15.777Z,27.30
2023-01-12T01:02:43.670Z,29.98
2023-01-12T01:05:11.655Z,21.58
2023-01-12T01:07:39.643Z,28.58
2023-01-12T01:10:10.301Z,28.98
2023-01-12T01:12:38.194Z,28.92
2023-01-12T01:15:06.919Z,41.45
2023-01-12T01:17:35.180Z,31.27
2023-01-12T01:20:05.014Z,30.98
2023-01-12T01:22:32.896Z,25.75
2023-01-12T01:25:00.758Z,29.55
2023-01-12T01:27:29.972Z,30.00
2023-01-12T01:29:57.810Z,26.70
2023-01-12T01:32:26.804Z,23.90
2023-01-12T01:34:54.653Z,34.92
2023-01-12T01:37:22.950Z,21.48
2023-01-12T01:39:50.787Z,28.73
2023-01-12T01:42:28.851Z,28.98
2023-01-12T01:45:00.564Z,36.03
2023-01-12T01:47:35.430Z,28.95
2023-01-12T01:50:07.063Z,36.28
2023-01-12T01:52:38.595Z,33.88
2023-01-12T01:55:09.667Z,29.42
2023-01-12T01:57:44.192Z,27.25
2023-01-12T02:00:15.121Z,27.17
2023-01-12T02:02:45.153Z,29.25
2023-01-12T02:05:18.744Z,29.77
2023-01-12T02:10:15.112Z,39.13
2023-01-12T02:13:00.743Z,27.00
2023-01-12T02:16:05.409Z,24.73
2023-01-12T02:18:37.490Z,27.67
2023-01-12T02:21:21.580Z,30.73
2023-01-12T02:24:28.215Z,29.60
2023-01-12T02:27:14.149Z,29.30
2023-01-12T02:30:07.721Z,37.03
2023-01-12T02:32:45.300Z,36.47
2023-01-12T02:35:22.597Z,38.85
2023-01-12T02:37:59.863Z,40.45
2023-01-12T02:40:36.087Z,30.13
2023-01-12T02:43:09.154Z,30.73
2023-01-12T02:45:43.359Z,35.63
2023-01-12T02:48:18.325Z,42.05
2023-01-12T02:50:52.339Z,28.30
2023-01-12T02:53:25.627Z,29.65
2023-01-12T02:55:54.475Z,30.58
2023-01-12T02:58:25.360Z,30.63
2023-01-12T03:00:57.250Z,32.08
2023-01-12T03:03:27.500Z,29.85
2023-01-12T03:05:57.011Z,37.70
2023-01-12T03:08:28.979Z,25.60
2023-01-12T03:11:15.088Z,32.50
2023-01-12T03:13:48.557Z,25.88
2023-01-12T03:16:20.073Z,32.63
2023-01-12T03:18:55.590Z,32.47
2023-01-12T03:21:30.636Z,31.63
2023-01-12T03:24:03.694Z,28.00
2023-01-12T03:26:35.201Z,23.25
2023-01-12T03:29:09.423Z,41.95
2023-01-12T03:31:38.720Z,36.95
2023-01-12T03:34:08.659Z,30.05
2023-01-12T03:36:47.079Z,28.02
2023-01-12T03:39:22.880Z,35.22
2023-01-12T03:41:58.373Z,23.67
2023-01-12T03:44:35.772Z,35.78
2023-01-12T03:47:10.300Z,28.30
2023-01-12T03:49:46.957Z,36.90
2023-01-12T03:52:16.744Z,36.58
2023-01-12T03:54:47.612Z,28.55
2023-01-12T03:57:16.906Z,28.73
2023-01-12T03:59:45.164Z,28.50
2023-01-12T04:02:14.424Z,22.40
2023-01-12T04:04:43.652Z,21.75
2023-01-12T04:07:11.563Z,21.88
2023-01-12T04:09:39.519Z,27.58
2023-01-12T04:12:13.574Z,28.17
2023-01-12T04:14:43.237Z,24.10
2023-01-12T04:17:13.275Z,27.08
2023-01-12T04:19:43.009Z,25.38
2023-01-12T04:22:32.669Z,22.65
2023-01-12T04:25:00.503Z,30.27
2023-01-12T04:27:28.424Z,20.23
2023-01-12T04:29:56.405Z,41.83
2023-01-12T04:32:24.300Z,17.30
2023-01-12T04:34:53.533Z,24.10
2023-01-12T04:37:21.627Z,20.20
2023-01-12T04:39:49.662Z,18.95
2023-01-12T04:42:34.967Z,13.52
2023-01-12T04:45:02.981Z,18.38
2023-01-12T04:47:31.093Z,24.13
2023-01-12T04:50:00.320Z,11.45
2023-01-12T04:52:28.357Z,15.15
2023-01-12T04:54:56.955Z,14.13
2023-01-12T04:57:25.169Z,14.30
2023-01-12T04:59:53.116Z,11.05
2023-01-12T05:02:21.342Z,13.23
2023-01-12T05:04:49.569Z,17.40
2023-01-12T05:07:18.873Z,12.35
2023-01-12T05:10:04.148Z,12.02
2023-01-12T05:12:32.093Z,10.88
2023-01-12T05:14:59.975Z,10.07
2023-01-12T05:17:28.645Z,10.02
2023-01-12T05:19:56.554Z,8.60
2023-01-12T05:22:25.871Z,11.75
2023-01-12T05:24:53.789Z,9.93
2023-01-12T05:27:21.681Z,7.20
2023-01-12T05:29:49.824Z,2.80
2023-01-12T05:32:17.876Z,4.60
2023-01-12T05:34:45.715Z,6.30
2023-01-12T05:37:13.678Z,7.20
2023-01-12T05:39:43.075Z,8.20
2023-01-12T05:42:28.352Z,8.48
2023-01-12T05:44:56.364Z,5.50
2023-01-12T05:47:24.437Z,8.63
2023-01-12T05:49:52.348Z,6.80
2023-01-12T05:52:20.360Z,8.38
2023-01-12T05:54:49.796Z,7.75
2023-01-12T05:57:17.753Z,3.25
2023-01-12T05:59:45.768Z,4.55
2023-01-12T06:02:17.446Z,3.22
2023-01-12T06:04:45.840Z,3.65
2023-01-12T06:07:14.683Z,4.30
2023-01-12T06:09:43.231Z,2.00
2023-01-12T06:12:30.823Z,3.70
2023-01-12T06:14:58.874Z,4.03
2023-01-12T06:17:26.839Z,3.05
2023-01-12T06:19:55.150Z,2.20
2023-01-12T06:22:23.103Z,4.93
2023-01-12T06:24:51.056Z,2.47
2023-01-12T06:27:20.360Z,6.82
2023-01-12T06:29:49.461Z,2.42
2023-01-12T06:32:17.345Z,4.28
2023-01-12T06:34:45.301Z,2.60
2023-01-12T06:37:13.244Z,2.17
2023-01-12T06:39:41.207Z,0.88
2023-01-12T06:42:26.717Z,1.27
2023-01-12T06:44:56.558Z,3.60
2023-01-12T06:47:24.609Z,1.17
2023-01-12T06:49:52.869Z,2.25
2023-01-12T06:52:21.806Z,3.67
2023-01-12T06:54:49.795Z,2.40
2023-01-12T06:57:17.946Z,1.25
2023-01-12T06:59:46.114Z,2.08
2023-01-12T07:02:17.016Z,3.30
2023-01-12T07:04:45.412Z,2.50
2023-01-12T07:07:13.402Z,6.40
2023-01-12T07:09:41.477Z,5.93
2023-01-12T07:12:09.685Z,6.10
2023-01-12T07:14:37.811Z,7.47
2023-01-12T07:17:05.715Z,14.60
2023-01-12T07:19:35.072Z,17.73
2023-01-12T07:22:03.143Z,12.70
2023-01-12T07:24:31.244Z,13.55
2023-01-12T07:26:59.415Z,15.88
2023-01-12T07:29:27.399Z,9.40
2023-01-12T07:31:55.550Z,16.85
2023-01-12T07:34:23.735Z,16.23
2023-01-12T07:36:53.425Z,24.20
2023-01-12T07:39:21.455Z,24.98
2023-01-12T07:42:06.780Z,22.10
2023-01-12T07:44:36.642Z,19.83
2023-01-12T07:47:04.737Z,22.92
2023-01-12T07:49:32.682Z,21.45
2023-01-12T07:52:01.991Z,24.95
2023-01-12T07:54:30.646Z,14.80
2023-01-12T07:56:59.387Z,24.38
2023-01-12T07:59:27.593Z,27.98
2023-01-12T08:01:55.650Z,23.40
2023-01-12T08:04:24.238Z,22.77
2023-01-12T08:06:52.238Z,26.55
2023-01-12T08:09:21.743Z,19.33
2023-01-12T08:11:49.844Z,30.45
2023-01-12T08:14:27.459Z,27.27
2023-01-12T08:17:01.468Z,28.52
2023-01-12T08:19:37.158Z,28.45
2023-01-12T08:22:09.678Z,31.20
2023-01-12T08:24:45.601Z,22.42
2023-01-12T08:27:13.839Z,27.70
2023-01-12T08:29:46.385Z,29.70
2023-01-12T08:32:17.952Z,19.03
2023-01-12T08:34:49.396Z,18.55
2023-01-12T08:37:21.232Z,12.23
2023-01-12T08:39:51.868Z,22.77
2023-01-12T08:42:20.380Z,29.42
2023-01-12T08:44:48.304Z,23.20
2023-01-12T08:47:19.069Z,20.95
2023-01-12T08:49:47.419Z,24.60
2023-01-12T08:52:16.667Z,26.08
2023-01-12T08:54:45.005Z,21.92
2023-01-12T08:57:16.170Z,25.48
2023-01-12T08:59:44.199Z,21.67
2023-01-12T09:02:12.886Z,13.40
2023-01-12T09:04:41.089Z,18.73
2023-01-12T09:07:10.182Z,25.15
2023-01-12T09:09:38.790Z,28.33
2023-01-12T09:12:07.413Z,19.98
2023-01-12T09:14:38.842Z,13.60
2023-01-12T09:17:07.662Z,24.80
2023-01-12T09:19:35.631Z,16.27
2023-01-12T09:22:03.883Z,23.35
2023-01-12T09:24:31.804Z,21.55
2023-01-12T09:27:00.166Z,25.35
2023-01-12T09:29:28.193Z,22.38
2023-01-12T09:31:57.618Z,24.75
2023-01-12T09:34:25.802Z,19.23
2023-01-12T09:36:56.206Z,16.55
2023-01-12T09:39:28.482Z,29.67
2023-01-12T09:42:16.689Z,19.35
2023-01-12T09:45:07.217Z,23.73
2023-01-12T09:47:40.140Z,25.65
2023-01-12T09:50:13.071Z,23.52
2023-01-12T09:52:45.943Z,22.65
2023-01-12T09:55:20.697Z,21.63
2023-01-12T09:58:11.572Z,33.25
2023-01-12T10:00:39.536Z,22.80
2023-01-12T10:03:17.057Z,28.10
2023-01-12T10:05:48.998Z,27.25
2023-01-12T10:08:27.515Z,18.70
2023-01-12T10:11:07.682Z,29.50
2023-01-12T10:14:01.839Z,31.98
2023-01-12T10:19:12.190Z,28.02
2023-01-12T10:21:42.545Z,24.50
2023-01-12T10:24:13.093Z,25.67
2023-01-12T10:26:43.766Z,22.10
2023-01-12T10:29:13.418Z,21.20
2023-01-12T10:31:41.827Z,24.13
2023-01-12T10:34:13.144Z,18.33
2023-01-12T10:36:44.664Z,18.83
2023-01-12T10:39:30.619Z,22.55
2023-01-12T10:42:44.033Z,11.13
2023-01-12T10:45:18.343Z,19.42
2023-01-12T10:47:47.132Z,15.52
2023-01-12T10:50:28.859Z,20.33
2023-01-12T10:53:02.940Z,20.17
2023-01-12T10:55:33.864Z,16.58
2023-01-12T10:58:02.907Z,15.55
2023-01-12T11:00:32.230Z,15.70
2023-01-12T11:03:00.228Z,17.65
2023-01-12T11:05:34.229Z,23.30
2023-01-12T11:08:03.201Z,22.27
2023-01-12T11:10:33.263Z,19.15
2023-01-12T11:13:05.963Z,9.45
2023-01-12T11:15:39.053Z,21.00
2023-01-12T11:18:32.738Z,22.50
2023-01-12T11:21:06.775Z,21.98
2023-01-12T11:23:41.818Z,17.90
2023-01-12T11:26:18.408Z,24.88
2023-01-12T11:28:50.086Z,20.48
2023-01-12T11:31:22.603Z,20.67
2023-01-12T11:33:54.582Z,27.58
2023-01-12T11:36:28.286Z,20.08
2023-01-12T11:39:03.135Z,34.95
2023-01-12T11:41:38.938Z,21.95
2023-01-12T11:44:15.344Z,27.08
2023-01-12T11:46:47.585Z,25.15
2023-01-12T11:49:23.704Z,18.08
2023-01-12T11:51:57.123Z,22.05
2023-01-12T11:54:26.890Z,22.70
2023-01-12T11:57:13.688Z,17.33
2023-01-12T11:59:53.650Z,20.10
2023-01-12T12:02:34.064Z,23.38
2023-01-12T12:05:13.390Z,20.48
2023-01-12T12:07:58.912Z,17.33
2023-01-12T12:10:36.005Z,16.33
2023-01-12T12:13:20.350Z,24.08
2023-01-12T12:15:57.025Z,18.85
2023-01-12T12:18:39.445Z,17.38
2023-01-12T12:21:15.970Z,16.55
2023-01-12T12:23:54.251Z,23.73
2023-01-12T12:26:27.410Z,19.48
2023-01-12T12:29:14.968Z,10.82
2023-01-12T12:32:02.913Z,20.63
2023-01-12T12:34:52.149Z,21.27
2023-01-12T12:37:31.751Z,24.33
2023-01-12T12:40:11.968Z,22.00
2023-01-12T12:43:22.743Z,18.10
2023-01-12T12:45:56.866Z,25.30
2023-01-12T12:48:28.999Z,17.08
2023-01-12T12:51:03.866Z,13.27
2023-01-12T12:53:35.572Z,21.90
2023-01-12T12:56:10.169Z,22.48
2023-01-12T12:58:44.523Z,15.50
2023-01-12T13:01:55.173Z,29.50
2023-01-12T13:04:57.667Z,31.95
2023-01-12T13:07:27.469Z,20.88
2023-01-12T13:10:10.712Z,22.92
2023-01-12T13:12:42.263Z,44.30
2023-01-12T13:15:26.929Z,22.48
2023-01-12T13:17:55.785Z,25.35
2023-01-12T13:21:02.474Z,26.38
2023-01-12T13:23:52.220Z,17.65
2023-01-12T13:26:52.119Z,23.80
2023-01-12T13:29:51.458Z,22.08
2023-01-12T13:32:43.604Z,23.08
2023-01-12T13:35:29.367Z,25.48
2023-01-12T13:38:04.719Z,25.20
2023-01-12T13:40:33.942Z,26.02
2023-01-12T13:43:16.981Z,33.92
2023-01-12T13:45:53.541Z,28.00
2023-01-12T13:48:22.284Z,30.33
2023-01-12T13:50:53.809Z,26.02
2023-01-12T13:53:27.620Z,21.48
2023-01-12T13:55:58.508Z,26.02
2023-01-12T13:58:27.542Z,28.08
2023-01-12T14:00:59.804Z,38.20
2023-01-12T14:03:43.559Z,27.75
2023-01-12T14:06:24.190Z,21.33
2023-01-12T14:09:06.752Z,24.45
2023-01-12T14:11:50.475Z,27.13
2023-01-12T14:14:53.859Z,20.13
2023-01-12T14:17:46.282Z,32.93
2023-01-12T14:20:20.171Z,30.10
2023-01-12T14:22:48.560Z,21.40
2023-01-12T14:25:20.472Z,26.48
2023-01-12T14:27:53.371Z,21.45
2023-01-12T14:30:22.694Z,30.27
2023-01-12T14:32:53.735Z,21.40
2023-01-12T14:35:23.560Z,24.98
2023-01-12T14:37:53.698Z,21.20
2023-01-12T14:40:25.459Z,30.40
2023-01-12T14:43:13.783Z,36.83
2023-01-12T14:46:13.217Z,35.75
2023-01-12T14:48:44.066Z,24.45
2023-01-12T14:51:19.831Z,25.27
2023-01-12T14:53:49.556Z,37.75
2023-01-12T14:56:21.982Z,45.75
2023-01-12T14:58:50.544Z,25.95
2023-01-12T15:01:36.129Z,20.83
2023-01-12T15:04:06.904Z,29.45
2023-01-12T15:06:39.884Z,20.27
2023-01-12T15:09:23.664Z,13.38
2023-01-12T15:14:24.892Z,12.65
2023-01-12T15:17:11.830Z,15.00
2023-01-12T15:19:58.798Z,8.30
2023-01-12T15:22:46.508Z,10.38
2023-01-12T15:25:38.351Z,7.00
2023-01-12T15:28:08.690Z,5.22
2023-01-12T15:30:39.772Z,7.78
2023-01-12T15:33:07.912Z,10.52
2023-01-12T15:35:39.839Z,5.57
2023-01-12T15:38:08.997Z,8.52
2023-01-12T15:40:37.064Z,7.70
2023-01-12T15:43:06.625Z,3.28
2023-01-12T15:45:36.558Z,5.28
2023-01-12T15:48:06.673Z,5.13
2023-01-12T15:50:35.731Z,3.63
2023-01-12T15:53:11.936Z,5.35
2023-01-12T15:55:40.136Z,5.07
2023-01-12T15:58:08.438Z,3.20
2023-01-12T16:00:36.987Z,2.92
2023-01-12T16:03:06.187Z,6.65
2023-01-12T16:05:34.493Z,8.73
2023-01-12T16:08:02.843Z,7.63
2023-01-12T16:10:32.517Z,14.75
2023-01-12T16:13:01.966Z,23.00
2023-01-12T16:15:30.190Z,21.98
2023-01-12T16:17:58.289Z,12.23
2023-01-12T16:20:26.740Z,20.05
2023-01-12T16:22:54.985Z,21.58
2023-01-12T16:25:22.943Z,21.83
2023-01-12T16:27:52.661Z,21.30
2023-01-12T16:30:20.829Z,13.80
2023-01-12T16:32:49.629Z,14.88
2023-01-12T16:35:17.964Z,12.45
2023-01-12T16:37:46.154Z,8.88
2023-01-12T16:40:14.437Z,8.60
2023-01-12T16:42:42.415Z,6.03
2023-01-12T16:45:12.470Z,7.97
2023-01-12T16:47:40.858Z,10.65
2023-01-12T16:50:10.041Z,6.30
2023-01-12T16:52:38.364Z,3.50
2023-01-12T16:55:07.172Z,6.63
2023-01-12T16:57:40.436Z,4.88
2023-01-12T17:02:40.872Z,5.38
2023-01-12T17:05:10.182Z,7.40
2023-01-12T17:07:38.727Z,3.25
2023-01-12T17:10:07.894Z,7.22
2023-01-12T17:12:35.801Z,4.15
2023-01-12T17:15:04.631Z,3.22
2023-01-12T17:17:33.200Z,5.03
2023-01-12T17:20:03.443Z,2.15
2023-01-12T17:22:32.636Z,2.08
2023-01-12T17:25:00.840Z,4.30
2023-01-12T17:27:29.012Z,4.75
2023-01-12T17:29:57.527Z,3.75
2023-01-12T17:32:25.572Z,2.78
2023-01-12T17:34:53.613Z,2.70
2023-01-12T17:37:22.904Z,3.95
2023-01-12T17:39:51.244Z,3.08
2023-01-12T17:42:36.954Z,4.65
2023-01-12T17:45:07.066Z,3.38
2023-01-12T17:47:35.468Z,3.03
2023-01-12T17:52:34.656Z,6.95
2023-01-12T17:55:03.039Z,6.95
2023-01-12T17:57:32.204Z,9.25
2023-01-12T18:00:00.223Z,10.95
2023-01-12T18:02:28.423Z,9.40
2023-01-12T18:04:57.051Z,10.63
2023-01-12T18:07:25.065Z,13.15
2023-01-12T18:09:54.424Z,11.05
2023-01-12T18:12:24.826Z,12.93
2023-01-12T18:14:53.237Z,12.90
2023-01-12T18:17:23.112Z,23.95
2023-01-12T18:19:51.396Z,14.55
2023-01-12T18:22:19.710Z,14.63
2023-01-12T18:24:47.844Z,10.32
2023-01-12T18:27:17.589Z,15.32
2023-01-12T18:29:45.886Z,12.48
2023-01-12T18:32:13.882Z,13.50
2023-01-12T18:34:42.354Z,16.25
2023-01-12T18:37:11.608Z,13.93
2023-01-12T18:39:44.035Z,16.00
2023-01-12T18:42:30.204Z,15.48
2023-01-12T18:45:01.103Z,14.85
2023-01-12T18:47:46.938Z,12.57
2023-01-12T18:50:32.834Z,14.38
2023-01-12T18:53:19.958Z,13.27
2023-01-12T18:55:48.520Z,10.90
2023-01-12T18:58:16.871Z,13.57
2023-01-12T19:00:46.405Z,14.32
2023-01-12T19:03:17.696Z,18.55
2023-01-12T19:05:55.644Z,16.02
2023-01-12T19:08:41.408Z,16.48
2023-01-12T19:11:11.037Z,11.38
2023-01-12T19:13:57.200Z,12.70
2023-01-12T19:16:44.969Z,12.30
2023-01-12T19:19:13.632Z,14.48
2023-01-12T19:21:59.359Z,16.05
2023-01-12T19:24:59.492Z,18.63
2023-01-12T19:27:44.877Z,20.55
2023-01-12T19:30:13.930Z,19.65
2023-01-12T19:32:43.989Z,18.83
2023-01-12T19:35:12.210Z,16.27
2023-01-12T19:37:42.503Z,22.05
2023-01-12T19:40:18.365Z,19.52
2023-01-12T19:43:04.422Z,13.07
2023-01-12T19:45:32.700Z,19.05
2023-01-12T19:48:04.070Z,20.77
2023-01-12T19:50:32.161Z,27.98
2023-01-12T19:53:00.555Z,18.85
2023-01-12T19:55:28.673Z,26.00
2023-01-12T19:57:58.096Z,18.58
2023-01-12T20:00:27.757Z,28.42
2023-01-12T20:02:55.879Z,26.50
2023-01-12T20:05:25.374Z,24.77
2023-01-12T20:07:54.246Z,21.80
2023-01-12T20:10:23.605Z,24.15
2023-01-12T20:12:52.423Z,26.85
2023-01-12T20:15:21.718Z,33.55
2023-01-12T20:17:50.501Z,23.63
2023-01-12T20:20:19.721Z,23.52
2023-01-12T20:22:51.631Z,21.40
2023-01-12T20:25:20.094Z,14.77
2023-01-12T20:27:49.267Z,25.92
2023-01-12T20:30:32.005Z,18.92
2023-01-12T20:33:05.101Z,24.42
2023-01-12T20:35:33.300Z,19.75
2023-01-12T20:38:04.078Z,26.17
2023-01-12T20:40:32.369Z,23.55
2023-01-12T20:43:00.401Z,21.90
2023-01-12T20:45:28.644Z,25.63
2023-01-12T20:47:56.659Z,23.05
2023-01-12T20:50:25.791Z,19.50
2023-01-12T20:52:54.371Z,23.60
2023-01-12T20:55:23.962Z,27.70
2023-01-12T20:57:52.320Z,18.73
2023-01-12T21:00:21.027Z,18.83
2023-01-12T21:02:49.080Z,20.42
2023-01-12T21:05:17.330Z,14.07
2023-01-12T21:07:45.349Z,22.25
2023-01-12T21:10:13.343Z,22.10
2023-01-12T21:12:42.996Z,15.27
2023-01-12T21:15:13.579Z,21.73
2023-01-12T21:17:42.769Z,21.90
2023-01-12T21:20:12.454Z,18.63
2023-01-12T21:22:40.800Z,20.52
2023-01-12T21:25:10.879Z,24.20
2023-01-12T21:27:39.111Z,27.90
2023-01-12T21:30:11.988Z,18.90
2023-01-12T21:32:40.728Z,26.10
2023-01-12T21:35:09.464Z,23.45
2023-01-12T21:37:37.734Z,23.35
2023-01-12T21:40:07.362Z,25.95
2023-01-12T21:42:52.972Z,17.55
2023-01-12T21:45:23.791Z,19.40
2023-01-12T21:47:51.862Z,22.05
2023-01-12T21:50:19.843Z,22.42
2023-01-12T21:52:48.450Z,16.70
2023-01-12T21:55:17.285Z,25.88
2023-01-12T21:57:46.493Z,22.90
2023-01-12T22:00:16.102Z,22.02
2023-01-12T22:02:47.158Z,30.52
2023-01-12T22:05:16.648Z,19.80
2023-01-12T22:07:44.600Z,29.27
2023-01-12T22:10:23.363Z,27.55
2023-01-12T22:12:54.155Z,19.13
2023-01-12T22:15:22.856Z,30.15
2023-01-12T22:17:52.192Z,29.58
2023-01-12T22:20:20.569Z,26.08
2023-01-12T22:22:49.420Z,29.75
2023-01-12T22:25:18.869Z,33.88
2023-01-12T22:27:48.191Z,33.25
2023-01-12T22:30:18.692Z,27.48
2023-01-12T22:32:46.924Z,24.13
2023-01-12T22:35:16.552Z,32.60
2023-01-12T22:37:44.746Z,25.50
2023-01-12T22:40:16.820Z,29.95
2023-01-12T22:43:03.710Z,27.15
2023-01-12T22:45:35.671Z,25.38
2023-01-12T22:48:03.943Z,30.48
2023-01-12T22:50:33.658Z,32.45
2023-01-12T22:53:01.583Z,31.00
2023-01-12T22:55:29.997Z,27.83
2023-01-12T22:57:58.058Z,28.83
2023-01-12T23:00:26.213Z,24.25
2023-01-12T23:03:03.395Z,34.25
2023-01-12T23:05:36.551Z,27.15
2023-01-12T23:08:07.088Z,37.30
2023-01-12T23:10:35.794Z,31.90
2023-01-12T23:13:15.917Z,27.77
2023-01-12T23:15:49.748Z,35.35
2023-01-12T23:18:19.405Z,21.17
2023-01-12T23:20:49.343Z,35.15
2023-01-12T23:23:18.557Z,31.63
2023-01-12T23:25:47.170Z,39.53
2023-01-12T23:28:16.154Z,32.78
2023-01-12T23:30:44.953Z,31.92
2023-01-12T23:33:13.071Z,31.83
2023-01-12T23:35:42.728Z,38.05
2023-01-12T23:38:15.720Z,24.98
2023-01-12T23:40:43.611Z,31.60
2023-01-12T23:43:11.668Z,42.38
2023-01-12T23:45:39.667Z,35.38
2023-01-12T23:48:08.227Z,33.88
2023-01-12T23:50:36.399Z,42.08
2023-01-12T23:53:04.941Z,39.42
2023-01-12T23:55:34.570Z,33.00
2023-01-12T23:58:02.558Z,34.05
